Language selection

My Weather Profile Weather Topics  | 

North Labrador Coast: Past 24 Hour Conditions

 

CFB Goose Bay

09:00 AM AST 30 November 2022
Disclaimer

This table is a summary of hourly weather conditions for the past 24 hours.
Please note that these observations might not always be representative of weather conditions over their associated marine area.

Date / Time
(AST)
Wind(knots) Conditions Visibility(km) Pressure(kPa) Air tempC) Relative humidity(%) Dew pointC) Wind Chill
30 November 2022
9:00 W 10 Sunny 24 102.9 -11 63 -17 -19
8:00 W 7 Sunny 24 102.9 -12 66 -17 -19
7:00 WSW 11 Clear 24 102.8 -12 65 -17 -20
6:00 WSW 10 Clear 24 102.7 -11 62 -17 -19
5:00 WSW 11 Clear 24 102.7 -11 63 -17 -19
4:00 WSW 10 Clear 24 102.6 -11 63 -16 -18
3:00 WSW 10 Mainly Clear 24 102.5 -11 65 -17 -19
2:00 WSW 7 Clear 24 102.4 -12 66 -17 -18
1:00 SW 5 Clear 24 102.3 -12 66 -17 -17
0:00 W 11 Mainly Clear 24 102.2 -11 63 -17 -19
29 November 2022
23:00 W 12 gust 17 Mainly Clear 24 102.1 -11 63 -16 -19
22:00 W 8 Mainly Clear 24 102.0 -11 63 -16 -17
21:00 W 12 Mostly Cloudy 24 102.0 -10 63 -16 -18
20:00 W 9 Mostly Cloudy 24 102.0 -10 62 -16 -17
19:00 W 9 Mostly Cloudy 24 101.9 -10 62 -16 -17
18:00 W 10 Mostly Cloudy 24 101.8 -10 61 -16 -17
17:00 W 16 Mostly Cloudy 24 101.7 -10 61 -16 -20
16:00 W 15 gust 21 Drifting Snow 24 101.6 -10 58 -16 -19
15:00 W 18 Drifting Snow 24 101.5 -10 58 -16 -19
14:00 W 14 gust 20 Drifting Snow 24 101.4 -9 56 -17 -18
13:00 W 11 gust 16 Cloudy 24 101.4 -10 58 -16 -17
12:00 W 12 gust 19 Cloudy 24 101.3 -10 58 -17 -18
11:00 WNW 14 Mostly Cloudy 24 101.3 -11 58 -17 -20
10:00 W 12 gust 19 Drifting Snow 24 101.2 -10 60 -16 -18
9:00 WNW 18 gust 24 Drifting Snow 24 101.1 -9 61 -16 -19

Zoom-in to make a selection

Map of Atlantic - Labrador marine weather areas Kangiqsualujjuaq Airport Cape Kakkiviak Cape Kiglapait Cartwright Airport CFB Goose Bay Hopedale Mary's Harbour Nain Airport Makkovik Airport Saglek Tukialik Bay
Legend:
buoy Buoy
land station Land Station

Atlantic - Labrador Area

Another Region

What we are doing

Date modified: